createdAt,value
2017-08-29T00:00:44.082Z,14.6
2017-08-29T00:01:46.504Z,14.6
2017-08-29T00:02:48.930Z,14.6
2017-08-29T00:03:51.358Z,14.6
2017-08-29T00:04:53.790Z,14.6
2017-08-29T00:05:56.217Z,14.6
2017-08-29T00:06:58.635Z,14.5
2017-08-29T00:08:01.074Z,14.5
2017-08-29T00:09:03.502Z,14.5
2017-08-29T00:10:06.627Z,14.5
2017-08-29T00:11:09.057Z,14.5
2017-08-29T00:12:11.483Z,14.5
2017-08-29T00:13:13.911Z,14.5
2017-08-29T00:14:16.342Z,14.5
2017-08-29T00:15:18.761Z,14.5
2017-08-29T00:16:21.186Z,14.5
2017-08-29T00:17:23.611Z,14.5
2017-08-29T00:18:26.039Z,14.5
2017-08-29T00:19:28.465Z,14.5
2017-08-29T00:20:30.890Z,14.5
2017-08-29T00:21:33.316Z,14.5
2017-08-29T00:22:35.749Z,14.5
2017-08-29T00:23:38.178Z,14.5
2017-08-29T00:24:40.609Z,14.5
2017-08-29T00:25:43.048Z,14.5
2017-08-29T00:26:45.463Z,14.5
2017-08-29T00:27:47.895Z,14.5
2017-08-29T00:28:50.660Z,14.5
2017-08-29T00:29:53.082Z,14.5
2017-08-29T00:30:55.509Z,14.5
2017-08-29T00:31:57.938Z,14.5
2017-08-29T00:33:00.365Z,14.4
2017-08-29T00:34:02.807Z,14.4
2017-08-29T00:35:05.230Z,14.4
2017-08-29T00:36:07.656Z,14.4
2017-08-29T00:37:10.089Z,14.4
2017-08-29T00:38:12.515Z,14.4
2017-08-29T00:39:14.935Z,14.4
2017-08-29T00:40:17.373Z,14.4
2017-08-29T00:41:19.792Z,14.4
2017-08-29T00:42:22.223Z,14.4
2017-08-29T00:43:24.653Z,14.4
2017-08-29T00:44:27.421Z,14.4
2017-08-29T00:45:29.844Z,14.3
2017-08-29T00:46:32.272Z,14.3
2017-08-29T00:47:34.695Z,14.3
2017-08-29T00:48:37.132Z,14.3
2017-08-29T00:49:39.563Z,14.3
2017-08-29T00:50:41.993Z,14.3
2017-08-29T00:51:44.408Z,14.3
2017-08-29T00:52:46.838Z,14.3
2017-08-29T00:53:49.271Z,14.3
2017-08-29T00:54:51.703Z,14.3
2017-08-29T00:55:54.127Z,14.3
2017-08-29T00:56:56.553Z,14.3
2017-08-29T00:57:58.977Z,14.3
2017-08-29T00:59:01.413Z,14.3
2017-08-29T01:00:03.840Z,14.3
2017-08-29T01:01:06.261Z,14.3
2017-08-29T01:02:08.694Z,14.3
2017-08-29T01:03:11.131Z,14.3
2017-08-29T01:04:13.556Z,14.3
2017-08-29T01:05:15.989Z,14.3
2017-08-29T01:06:18.408Z,14.2
2017-08-29T01:07:20.834Z,14.2
2017-08-29T01:08:23.624Z,14.2
2017-08-29T01:09:26.756Z,14.2
2017-08-29T01:10:29.187Z,14.2
2017-08-29T01:11:31.630Z,14.2
2017-08-29T01:12:34.743Z,14.2
2017-08-29T01:13:37.184Z,14.1
2017-08-29T01:14:39.610Z,14.2
2017-08-29T01:15:42.032Z,14.1
2017-08-29T01:16:44.464Z,14.1
2017-08-29T01:17:46.892Z,14.1
2017-08-29T01:18:49.328Z,14.1
2017-08-29T01:19:51.759Z,14.1
2017-08-29T01:20:54.183Z,14.1
2017-08-29T01:21:56.613Z,14.1
2017-08-29T01:22:59.037Z,14.1
2017-08-29T01:24:01.468Z,14.1
2017-08-29T01:25:03.903Z,14.1
2017-08-29T01:26:06.327Z,14.1
2017-08-29T01:27:08.753Z,14.1
2017-08-29T01:28:11.189Z,14.1
2017-08-29T01:29:13.618Z,14.1
2017-08-29T01:30:16.049Z,14.1
2017-08-29T01:31:18.471Z,14.1
2017-08-29T01:32:20.900Z,14.1
2017-08-29T01:33:23.323Z,14.1
2017-08-29T01:34:26.088Z,14.1
2017-08-29T01:35:28.514Z,14
2017-08-29T01:36:30.941Z,14
2017-08-29T01:37:33.716Z,14
2017-08-29T01:38:36.151Z,14
2017-08-29T01:39:38.923Z,14
2017-08-29T01:40:41.349Z,14
2017-08-29T01:41:43.774Z,14
2017-08-29T01:42:46.204Z,13.9
2017-08-29T01:43:48.645Z,13.9
2017-08-29T01:44:51.069Z,13.9
2017-08-29T01:45:53.493Z,13.9
2017-08-29T01:46:55.921Z,13.9
2017-08-29T01:47:58.344Z,13.9
2017-08-29T01:49:01.126Z,13.9
2017-08-29T01:50:03.549Z,13.9
2017-08-29T01:51:06.672Z,13.9
2017-08-29T01:52:09.103Z,13.9
2017-08-29T01:53:11.528Z,13.9
2017-08-29T01:54:13.957Z,13.9
2017-08-29T01:55:16.376Z,13.9
2017-08-29T01:56:18.801Z,13.9
2017-08-29T01:57:21.233Z,13.9
2017-08-29T01:58:23.671Z,13.9
2017-08-29T01:59:26.092Z,13.9
2017-08-29T02:00:28.524Z,13.9
2017-08-29T02:01:30.950Z,13.9
2017-08-29T02:02:33.378Z,13.9
2017-08-29T02:03:35.814Z,13.9
2017-08-29T02:04:38.242Z,13.9
2017-08-29T02:05:41.012Z,13.9
2017-08-29T02:06:43.443Z,13.9
2017-08-29T02:07:45.871Z,13.9
2017-08-29T02:08:48.297Z,13.9
2017-08-29T02:09:50.725Z,13.9
2017-08-29T02:10:53.144Z,13.9
2017-08-29T02:11:55.571Z,13.9
2017-08-29T02:12:58.357Z,13.9
2017-08-29T02:14:00.777Z,13.9
2017-08-29T02:15:03.210Z,13.9
2017-08-29T02:16:05.639Z,13.9
2017-08-29T02:17:08.070Z,13.9
2017-08-29T02:18:10.498Z,13.9
2017-08-29T02:19:12.925Z,13.9
2017-08-29T02:20:15.348Z,13.9
2017-08-29T02:21:17.771Z,13.9
2017-08-29T02:22:20.208Z,13.9
2017-08-29T02:23:22.635Z,13.9
2017-08-29T02:24:25.057Z,13.9
2017-08-29T02:25:27.486Z,13.9
2017-08-29T02:26:29.920Z,13.9
2017-08-29T02:27:32.348Z,13.9
2017-08-29T02:28:34.785Z,13.9
2017-08-29T02:29:37.205Z,13.9
2017-08-29T02:30:39.634Z,13.9
2017-08-29T02:31:42.072Z,13.9
2017-08-29T02:32:44.491Z,13.9
2017-08-29T02:33:46.908Z,13.8
2017-08-29T02:34:49.333Z,13.8
2017-08-29T02:35:51.760Z,13.8
2017-08-29T02:36:54.198Z,13.8
2017-08-29T02:37:56.969Z,13.8
2017-08-29T02:38:59.387Z,13.8
2017-08-29T02:40:01.816Z,13.8
2017-08-29T02:41:04.237Z,13.8
2017-08-29T02:42:06.666Z,13.8
2017-08-29T02:43:09.104Z,13.8
2017-08-29T02:44:11.877Z,13.8
2017-08-29T02:45:14.310Z,13.7
2017-08-29T02:46:17.113Z,13.7
2017-08-29T02:47:19.524Z,13.7
2017-08-29T02:48:21.948Z,13.7
2017-08-29T02:49:24.385Z,13.7
2017-08-29T02:50:26.811Z,13.7
2017-08-29T02:51:29.235Z,13.7
2017-08-29T02:52:31.663Z,13.7
2017-08-29T02:53:34.096Z,13.7
2017-08-29T02:54:36.518Z,13.7
2017-08-29T02:55:38.955Z,13.6
2017-08-29T02:56:41.372Z,13.6
2017-08-29T02:57:43.806Z,13.6
2017-08-29T02:58:46.226Z,13.6
2017-08-29T02:59:48.653Z,13.6
2017-08-29T03:00:51.089Z,13.6
2017-08-29T03:01:53.513Z,13.6
2017-08-29T03:02:55.927Z,13.6
2017-08-29T03:03:58.361Z,13.6
2017-08-29T03:05:00.785Z,13.6
2017-08-29T03:06:03.215Z,13.5
2017-08-29T03:07:05.644Z,13.5
2017-08-29T03:08:08.414Z,13.5
2017-08-29T03:09:10.835Z,13.5
2017-08-29T03:10:13.264Z,13.5
2017-08-29T03:11:15.688Z,13.5
2017-08-29T03:12:18.116Z,13.5
2017-08-29T03:13:20.548Z,13.5
2017-08-29T03:14:22.979Z,13.5
2017-08-29T03:15:25.408Z,13.5
2017-08-29T03:16:28.181Z,13.5
2017-08-29T03:17:30.945Z,13.5
2017-08-29T03:18:33.375Z,13.5
2017-08-29T03:19:35.796Z,13.5
2017-08-29T03:20:38.227Z,13.5
2017-08-29T03:21:40.651Z,13.5
2017-08-29T03:22:43.077Z,13.5
2017-08-29T03:23:45.505Z,13.5
2017-08-29T03:24:47.934Z,13.5
2017-08-29T03:25:50.356Z,13.5
2017-08-29T03:26:52.784Z,13.5
2017-08-29T03:27:55.208Z,13.5
2017-08-29T03:28:57.634Z,13.4
2017-08-29T03:30:00.401Z,13.4
2017-08-29T03:31:02.830Z,13.4
2017-08-29T03:32:05.250Z,13.4
2017-08-29T03:33:07.688Z,13.4
2017-08-29T03:34:10.452Z,13.4
2017-08-29T03:35:12.887Z,13.4
2017-08-29T03:36:15.314Z,13.4
2017-08-29T03:37:17.888Z,13.4
2017-08-29T03:38:20.314Z,13.4
2017-08-29T03:39:22.750Z,13.4
2017-08-29T03:40:25.173Z,13.4
2017-08-29T03:41:27.604Z,13.4
2017-08-29T03:42:30.031Z,13.4
2017-08-29T03:43:32.462Z,13.4
2017-08-29T03:44:34.887Z,13.4
2017-08-29T03:45:37.323Z,13.4
2017-08-29T03:46:39.745Z,13.4
2017-08-29T03:47:42.164Z,13.4
2017-08-29T03:48:44.602Z,13.4
2017-08-29T03:49:47.031Z,13.4
2017-08-29T03:50:49.458Z,13.4
2017-08-29T03:51:51.881Z,13.4
2017-08-29T03:52:54.650Z,13.4
2017-08-29T03:53:57.071Z,13.4
2017-08-29T03:54:59.509Z,13.4
2017-08-29T03:56:01.931Z,13.4
2017-08-29T03:57:04.354Z,13.4
2017-08-29T03:58:06.774Z,13.4
2017-08-29T03:59:09.205Z,13.4
2017-08-29T04:00:11.636Z,13.4
2017-08-29T04:01:14.066Z,13.4
2017-08-29T04:02:16.483Z,13.3
2017-08-29T04:03:18.905Z,13.3
2017-08-29T04:04:21.330Z,13.4
2017-08-29T04:05:23.759Z,13.4
2017-08-29T04:06:26.183Z,13.4
2017-08-29T04:07:28.614Z,13.4
2017-08-29T04:08:31.042Z,13.4
2017-08-29T04:09:33.477Z,13.4
2017-08-29T04:10:35.902Z,13.3
2017-08-29T04:11:38.327Z,13.3
2017-08-29T04:12:40.746Z,13.3
2017-08-29T04:13:43.176Z,13.3
2017-08-29T04:14:45.607Z,13.3
2017-08-29T04:15:48.023Z,13.3
2017-08-29T04:16:50.458Z,13.3
2017-08-29T04:17:52.881Z,13.4
2017-08-29T04:18:55.306Z,13.3
2017-08-29T04:19:58.072Z,13.3
2017-08-29T04:21:00.498Z,13.3
2017-08-29T04:22:02.928Z,13.3
2017-08-29T04:23:05.354Z,13.3
2017-08-29T04:24:07.770Z,13.3
2017-08-29T04:25:10.197Z,13.3
2017-08-29T04:26:12.635Z,13.3
2017-08-29T04:27:15.053Z,13.3
2017-08-29T04:28:17.485Z,13.3
2017-08-29T04:29:19.911Z,13.3
2017-08-29T04:30:22.338Z,13.3
2017-08-29T04:31:24.764Z,13.3
2017-08-29T04:32:27.188Z,13.3
2017-08-29T04:33:29.617Z,13.3
2017-08-29T04:34:32.049Z,13.3
2017-08-29T04:35:34.476Z,13.3
2017-08-29T04:36:36.902Z,13.4
2017-08-29T04:37:39.329Z,13.4
2017-08-29T04:38:41.762Z,13.4
2017-08-29T04:39:44.178Z,13.4
2017-08-29T04:40:46.599Z,13.4
2017-08-29T04:41:49.026Z,13.4
2017-08-29T04:42:51.453Z,13.4
2017-08-29T04:43:53.879Z,13.4
2017-08-29T04:44:56.307Z,13.4
2017-08-29T04:45:58.734Z,13.4
2017-08-29T04:47:01.157Z,13.4
2017-08-29T04:48:03.586Z,13.5
2017-08-29T04:49:06.716Z,13.5
2017-08-29T04:50:09.136Z,13.5
2017-08-29T04:51:11.572Z,13.5
2017-08-29T04:52:14.001Z,13.5
2017-08-29T04:53:16.764Z,13.5
2017-08-29T04:54:19.187Z,13.5
2017-08-29T04:55:21.620Z,13.5
2017-08-29T04:56:24.043Z,13.5
2017-08-29T04:57:26.493Z,13.5
2017-08-29T04:58:28.919Z,13.6
2017-08-29T04:59:31.347Z,13.6
2017-08-29T05:00:33.781Z,13.6
2017-08-29T05:01:36.197Z,13.6
2017-08-29T05:02:38.628Z,13.6
2017-08-29T05:03:41.403Z,13.6
2017-08-29T05:04:43.832Z,13.6
2017-08-29T05:05:46.254Z,13.6
2017-08-29T05:06:49.011Z,13.6
2017-08-29T05:07:51.437Z,13.7
2017-08-29T05:08:53.869Z,13.7
2017-08-29T05:09:56.296Z,13.7
2017-08-29T05:10:58.709Z,13.8
2017-08-29T05:12:01.147Z,13.8
2017-08-29T05:13:03.582Z,13.8
2017-08-29T05:14:05.998Z,13.8
2017-08-29T05:15:08.429Z,13.8
2017-08-29T05:16:11.195Z,13.8
2017-08-29T05:17:13.626Z,13.9
2017-08-29T05:18:16.050Z,13.9
2017-08-29T05:19:18.474Z,13.9
2017-08-29T05:20:20.906Z,13.9
2017-08-29T05:21:23.331Z,14
2017-08-29T05:22:26.123Z,14
2017-08-29T05:23:28.544Z,14
2017-08-29T05:24:30.967Z,14
2017-08-29T05:25:33.401Z,14
2017-08-29T05:26:35.840Z,14.1
2017-08-29T05:27:38.267Z,14.1
2017-08-29T05:28:40.694Z,14.1
2017-08-29T05:29:43.125Z,14.1
2017-08-29T05:30:45.553Z,14.1
2017-08-29T05:31:47.986Z,14.1
2017-08-29T05:32:50.414Z,14.2
2017-08-29T05:33:52.841Z,14.2
2017-08-29T05:34:55.278Z,14.3
2017-08-29T05:35:57.698Z,14.3
2017-08-29T05:37:00.117Z,14.3
2017-08-29T05:38:02.550Z,14.3
2017-08-29T05:39:04.981Z,14.4
2017-08-29T05:40:07.418Z,14.4
2017-08-29T05:41:09.846Z,14.4
2017-08-29T05:42:12.268Z,14.5
2017-08-29T05:43:14.698Z,14.5
2017-08-29T05:44:17.134Z,14.5
2017-08-29T05:45:19.558Z,14.6
2017-08-29T05:46:21.984Z,14.6
2017-08-29T05:47:24.408Z,14.6
2017-08-29T05:48:26.843Z,14.6
2017-08-29T05:49:29.259Z,14.7
2017-08-29T05:50:31.690Z,14.7
2017-08-29T05:51:34.116Z,14.7
2017-08-29T05:52:36.546Z,14.7
2017-08-29T05:53:38.976Z,14.7
2017-08-29T05:54:41.402Z,14.8
2017-08-29T05:55:43.830Z,14.8
2017-08-29T05:56:46.271Z,14.8
2017-08-29T05:57:48.689Z,14.8
2017-08-29T05:58:51.109Z,14.9
2017-08-29T05:59:53.541Z,14.9
2017-08-29T06:00:55.966Z,14.9
2017-08-29T06:01:58.743Z,14.9
2017-08-29T06:03:01.170Z,14.9
2017-08-29T06:04:03.966Z,15
2017-08-29T06:05:06.392Z,15
2017-08-29T06:06:08.824Z,15.1
2017-08-29T06:07:11.242Z,15.1
2017-08-29T06:08:13.679Z,15.1
2017-08-29T06:09:16.109Z,15.2
2017-08-29T06:11:16.316Z,15.2
2017-08-29T06:12:18.719Z,15.3
2017-08-29T06:13:21.121Z,15.3
2017-08-29T06:14:23.528Z,15.3
2017-08-29T06:15:25.930Z,15.4
2017-08-29T06:16:28.342Z,15.4
2017-08-29T06:17:30.759Z,15.4
2017-08-29T06:18:33.157Z,15.4
2017-08-29T06:19:35.561Z,15.5
2017-08-29T06:20:37.971Z,15.5
2017-08-29T06:21:40.376Z,15.6
2017-08-29T06:22:42.787Z,15.6
2017-08-29T06:23:45.185Z,15.6
2017-08-29T06:24:47.581Z,15.6
2017-08-29T06:25:49.988Z,15.7
2017-08-29T06:26:52.394Z,15.7
2017-08-29T06:27:54.790Z,15.7
2017-08-29T06:28:57.531Z,15.7
2017-08-29T06:29:59.939Z,15.8
2017-08-29T06:31:02.356Z,15.8
2017-08-29T06:32:04.752Z,15.8
2017-08-29T06:33:07.160Z,15.9
2017-08-29T06:34:09.563Z,15.9
2017-08-29T06:35:11.965Z,15.9
2017-08-29T06:36:14.376Z,15.9
2017-08-29T06:37:16.782Z,16
2017-08-29T06:38:19.181Z,16
2017-08-29T06:39:21.586Z,16
2017-08-29T06:41:08.866Z,16
2017-08-29T06:42:11.653Z,16.1
2017-08-29T06:43:14.078Z,16.1
2017-08-29T06:44:16.505Z,16.1
2017-08-29T06:45:18.938Z,16.1
2017-08-29T06:46:21.367Z,16.2
2017-08-29T06:47:23.797Z,16.2
2017-08-29T06:48:26.229Z,16.3
2017-08-29T06:49:28.662Z,16.3
2017-08-29T06:50:31.084Z,16.3
2017-08-29T06:51:33.515Z,16.3
2017-08-29T06:52:35.951Z,16.4
2017-08-29T06:53:38.371Z,16.4
2017-08-29T06:54:40.801Z,16.4
2017-08-29T06:55:43.579Z,16.5
2017-08-29T06:56:46.007Z,16.5
2017-08-29T06:57:48.446Z,16.5
2017-08-29T06:58:50.876Z,16.6
2017-08-29T06:59:53.298Z,16.6
2017-08-29T07:00:55.735Z,16.7
2017-08-29T07:01:58.176Z,16.7
2017-08-29T07:03:00.600Z,16.7
2017-08-29T07:04:03.027Z,16.8
2017-08-29T07:05:05.795Z,16.9
2017-08-29T07:06:08.571Z,16.9
2017-08-29T07:07:11.012Z,16.9
2017-08-29T07:08:13.439Z,17
2017-08-29T07:09:15.874Z,17
2017-08-29T07:10:18.303Z,17.1
2017-08-29T07:11:20.736Z,17.1
2017-08-29T07:12:23.172Z,17.2
2017-08-29T07:13:25.599Z,17.3
2017-08-29T07:14:28.024Z,17.4
2017-08-29T07:15:30.455Z,17.4
2017-08-29T07:16:32.896Z,17.5
2017-08-29T07:17:35.326Z,17.5
2017-08-29T07:18:37.761Z,17.6
2017-08-29T07:19:40.531Z,17.6
2017-08-29T07:20:42.966Z,17.7
2017-08-29T07:21:45.392Z,17.7
2017-08-29T07:22:47.825Z,17.7
2017-08-29T07:23:50.246Z,17.8
2017-08-29T07:24:53.016Z,17.8
2017-08-29T07:25:55.453Z,17.9
2017-08-29T07:26:57.888Z,17.9
2017-08-29T07:28:00.322Z,18
2017-08-29T07:29:02.749Z,18
2017-08-29T07:30:05.181Z,18.1
2017-08-29T07:31:07.904Z,18.1
2017-08-29T07:32:10.404Z,18.2
2017-08-29T07:33:13.180Z,18.3
2017-08-29T07:34:15.611Z,18.3
2017-08-29T07:35:18.040Z,18.4
2017-08-29T07:36:20.471Z,18.5
2017-08-29T07:37:22.910Z,18.5
2017-08-29T07:38:25.333Z,18.5
2017-08-29T07:39:28.102Z,18.5
2017-08-29T07:40:30.534Z,18.6
2017-08-29T07:41:32.968Z,18.7
2017-08-29T07:42:35.397Z,18.7
2017-08-29T07:43:37.829Z,18.8
2017-08-29T07:44:40.265Z,18.8
2017-08-29T07:45:42.702Z,18.9
2017-08-29T07:46:45.506Z,19
2017-08-29T07:47:47.941Z,19
2017-08-29T07:48:50.366Z,19.1
2017-08-29T07:49:53.131Z,19.1
2017-08-29T07:50:55.576Z,19.2
2017-08-29T07:51:58.004Z,19.2
2017-08-29T07:53:00.439Z,19.3
2017-08-29T07:54:02.874Z,19.3
2017-08-29T07:55:05.648Z,19.4
2017-08-29T07:56:08.082Z,19.5
2017-08-29T07:57:10.523Z,19.6
2017-08-29T07:58:12.948Z,19.7
2017-08-29T07:59:15.382Z,19.8
2017-08-29T08:00:17.819Z,20
2017-08-29T08:01:20.246Z,20.2
2017-08-29T08:02:22.686Z,20.4
2017-08-29T08:03:25.122Z,20.5
2017-08-29T08:04:27.546Z,20.6
2017-08-29T08:05:29.989Z,20.8
2017-08-29T08:06:32.416Z,21
2017-08-29T08:07:34.844Z,21.1
2017-08-29T08:08:37.626Z,21.3
2017-08-29T08:09:40.062Z,21.4
2017-08-29T08:10:42.495Z,21.4
2017-08-29T08:11:44.940Z,21.4
2017-08-29T08:12:47.371Z,21.5
2017-08-29T08:13:49.808Z,21.6
2017-08-29T08:14:52.251Z,21.6
2017-08-29T08:15:54.685Z,21.6
2017-08-29T08:16:57.120Z,21.7
2017-08-29T08:17:59.564Z,21.8
2017-08-29T08:19:01.993Z,22.1
2017-08-29T08:20:04.427Z,22.1
2017-08-29T08:21:06.875Z,22
2017-08-29T08:22:09.649Z,22
2017-08-29T08:23:12.092Z,22.2
2017-08-29T08:24:14.530Z,22.3
2017-08-29T08:25:16.979Z,22.3
2017-08-29T08:26:19.428Z,22.3
2017-08-29T08:27:21.868Z,22.5
2017-08-29T08:28:24.634Z,22.6
2017-08-29T08:29:27.073Z,22.8
2017-08-29T08:30:29.513Z,22.7
2017-08-29T08:31:31.951Z,22.6
2017-08-29T08:32:34.416Z,22.8
2017-08-29T08:33:36.851Z,22.9
2017-08-29T08:34:39.284Z,23
2017-08-29T08:35:41.783Z,23
2017-08-29T08:36:44.344Z,23.1
2017-08-29T08:37:46.822Z,23.2
2017-08-29T08:38:49.270Z,23.1
2017-08-29T08:39:51.698Z,23.2
2017-08-29T08:40:54.140Z,23.2
2017-08-29T08:41:56.577Z,23.4
2017-08-29T08:42:59.018Z,23.4
2017-08-29T08:44:01.445Z,23.5
2017-08-29T08:45:04.236Z,23.5
2017-08-29T08:46:07.005Z,23.8
2017-08-29T08:47:09.441Z,24
2017-08-29T08:48:11.874Z,23.8
2017-08-29T08:49:14.314Z,23.8
2017-08-29T08:50:16.757Z,23.7
2017-08-29T08:51:19.194Z,23.8
2017-08-29T08:52:21.629Z,23.8
2017-08-29T08:53:24.073Z,24
2017-08-29T08:55:29.517Z,24
2017-08-29T08:56:31.968Z,24.2
2017-08-29T08:57:25.778Z,24.3
2017-08-29T08:57:42.462Z,24.4
2017-08-29T08:58:02.787Z,24.4
2017-08-29T08:58:04.865Z,24.4
2017-08-29T09:05:09.583Z,24.4
2017-08-29T11:34:56.334Z,27.6
2017-08-29T11:35:58.776Z,28.1
2017-08-29T11:37:01.216Z,28.1
2017-08-29T11:38:03.651Z,28.1
2017-08-29T11:39:06.101Z,28
2017-08-29T11:40:09.567Z,28.1
2017-08-29T11:41:12.000Z,27.9
2017-08-29T11:42:14.446Z,27.9
2017-08-29T11:43:16.882Z,27.9
2017-08-29T11:44:19.320Z,28
2017-08-29T11:45:21.764Z,28.1
2017-08-29T11:46:24.541Z,28
2017-08-29T11:47:27.111Z,27.9
2017-08-29T11:48:29.566Z,27.8
2017-08-29T11:49:31.997Z,27.7
2017-08-29T11:50:34.442Z,27.8
2017-08-29T11:51:36.881Z,28
2017-08-29T11:52:39.322Z,28
2017-08-29T11:53:41.759Z,28.2
2017-08-29T11:54:44.205Z,28.4
2017-08-29T11:55:46.648Z,28.2
2017-08-29T11:56:49.091Z,28.4
2017-08-29T11:57:51.534Z,28.4
2017-08-29T11:58:53.966Z,28.6
2017-08-29T11:59:56.446Z,28.6
2017-08-29T12:00:58.889Z,28.5
2017-08-29T12:02:01.331Z,28.7
2017-08-29T12:03:03.771Z,28.6
2017-08-29T12:04:06.210Z,28.6
2017-08-29T12:05:08.680Z,28.6
2017-08-29T12:06:11.147Z,28.8
2017-08-29T12:07:13.592Z,28.9
2017-08-29T12:08:16.383Z,28.9
2017-08-29T12:09:19.014Z,28.7
2017-08-29T12:10:21.480Z,28.7
2017-08-29T12:11:23.894Z,28.8
2017-08-29T12:12:26.347Z,28.9
2017-08-29T12:13:28.779Z,29
2017-08-29T12:14:31.218Z,29.1
2017-08-29T12:15:33.956Z,29.2
2017-08-29T12:16:36.408Z,29.2
2017-08-29T12:17:39.797Z,29.3
2017-08-29T12:18:42.349Z,29.3
2017-08-29T12:19:44.798Z,29.1
2017-08-29T12:20:47.236Z,29.1
2017-08-29T12:21:49.678Z,29.2
2017-08-29T12:22:52.131Z,29.3
2017-08-29T12:23:54.666Z,29.3
2017-08-29T12:24:57.460Z,29.3
2017-08-29T12:25:59.908Z,29.2
2017-08-29T12:27:02.350Z,29.4
2017-08-29T12:28:04.797Z,29.3
2017-08-29T12:29:07.239Z,29.4
2017-08-29T12:30:09.675Z,29.1
2017-08-29T12:31:13.219Z,29.1
2017-08-29T12:32:16.048Z,29.3
2017-08-29T12:33:18.848Z,29.4
2017-08-29T12:34:21.293Z,29.5
2017-08-29T12:35:23.737Z,29.3
2017-08-29T12:36:26.180Z,29.2
2017-08-29T12:37:28.629Z,29.4
2017-08-29T12:38:31.075Z,29
2017-08-29T12:39:33.529Z,29.1
2017-08-29T12:40:35.971Z,29.4
2017-08-29T12:41:38.414Z,29.7
2017-08-29T12:42:40.856Z,29.4
2017-08-29T12:43:43.303Z,29.3
2017-08-29T12:44:45.743Z,29.4
2017-08-29T12:45:48.203Z,29.6
2017-08-29T12:46:51.031Z,29.7
2017-08-29T12:47:53.476Z,29.7
2017-08-29T12:48:56.258Z,29.7
2017-08-29T12:49:58.728Z,29.7
2017-08-29T12:51:01.198Z,29.6
2017-08-29T12:52:03.728Z,29.8
2017-08-29T12:53:06.222Z,29.8
2017-08-29T12:54:08.670Z,30
2017-08-29T12:55:11.109Z,30
2017-08-29T12:56:13.563Z,30.1
2017-08-29T12:57:16.000Z,29.9
2017-08-29T12:58:18.447Z,30.1
2017-08-29T12:59:20.915Z,29.9
2017-08-29T13:00:23.337Z,30.1
2017-08-29T13:01:25.787Z,30.1
2017-08-29T13:02:28.572Z,30.1
2017-08-29T13:03:31.021Z,30
2017-08-29T13:04:33.459Z,30.1
2017-08-29T13:05:35.905Z,30
2017-08-29T13:06:38.352Z,29.7
2017-08-29T13:07:40.797Z,30.1
2017-08-29T13:08:43.250Z,29.9
2017-08-29T13:09:45.691Z,29.7
2017-08-29T13:10:48.132Z,29.8
2017-08-29T13:11:50.593Z,29.5
2017-08-29T13:12:53.036Z,29.6
2017-08-29T13:13:55.482Z,29.8
2017-08-29T13:14:57.926Z,30
2017-08-29T13:16:00.370Z,30
2017-08-29T13:17:02.815Z,30.1
2017-08-29T13:18:05.267Z,30.2
2017-08-29T13:19:07.715Z,30
2017-08-29T13:20:10.155Z,30
2017-08-29T13:21:12.615Z,30.1
2017-08-29T13:22:15.053Z,29.9
2017-08-29T13:23:17.489Z,29.8
2017-08-29T13:24:19.933Z,29.7
2017-08-29T13:25:22.712Z,29.8
2017-08-29T13:26:25.496Z,29.8
2017-08-29T13:27:27.939Z,29.8
2017-08-29T13:28:30.716Z,29.8
2017-08-29T13:29:33.168Z,29.9
2017-08-29T13:30:35.986Z,29.9
2017-08-29T13:31:38.426Z,29.8
2017-08-29T13:32:40.875Z,29.7
2017-08-29T13:33:43.322Z,29.7
2017-08-29T13:34:45.764Z,29.6
2017-08-29T13:35:48.203Z,29.6
2017-08-29T13:36:51.007Z,29.7
2017-08-29T13:37:53.448Z,29.2
2017-08-29T13:38:55.892Z,29.3
2017-08-29T13:39:58.325Z,29.5
2017-08-29T13:41:00.771Z,29.5
2017-08-29T13:42:03.209Z,29.6
2017-08-29T13:43:05.648Z,29.8
2017-08-29T13:44:08.094Z,29.8
2017-08-29T13:45:10.538Z,29.8
2017-08-29T13:46:12.977Z,29.6
2017-08-29T13:47:15.428Z,29.7
2017-08-29T13:48:17.863Z,29.7
2017-08-29T13:49:20.301Z,29.7
2017-08-29T13:50:22.741Z,29.4
2017-08-29T13:51:25.183Z,29.5
2017-08-29T13:52:27.627Z,29.8
2017-08-29T13:53:30.069Z,29.8
2017-08-29T13:54:32.503Z,30.1
2017-08-29T13:55:34.946Z,29.8
2017-08-29T13:56:37.382Z,29.9
2017-08-29T13:57:39.822Z,29.9
2017-08-29T13:58:42.260Z,30
2017-08-29T14:07:10.187Z,30.6
2017-08-29T14:07:49.871Z,30.1
2017-08-29T14:08:52.327Z,30.3
2017-08-29T14:09:54.774Z,30.2
2017-08-29T14:10:57.219Z,30.1
2017-08-29T14:11:59.681Z,30.3
2017-08-29T14:13:02.132Z,29.9
2017-08-29T14:14:04.579Z,30.3
2017-08-29T14:16:49.538Z,30.3
2017-08-29T14:17:51.990Z,30
2017-08-29T14:18:54.441Z,30.3
2017-08-29T15:30:13.481Z,28.6
2017-08-29T15:31:15.931Z,29.1
2017-08-29T16:17:42.450Z,27
2017-08-29T16:18:11.068Z,27.3
2017-08-29T16:19:13.521Z,27.2
2017-08-29T16:20:15.973Z,27.3
2017-08-29T16:21:18.417Z,27.1
2017-08-29T16:22:20.878Z,26.8
2017-08-29T16:23:23.331Z,26.6
2017-08-29T16:24:25.783Z,26.8
2017-08-29T16:25:28.237Z,26.9
2017-08-29T16:26:30.689Z,27
2017-08-29T16:27:33.137Z,26.8
2017-08-29T16:28:35.589Z,26.9
2017-08-29T16:29:38.045Z,26.8
2017-08-29T16:30:40.498Z,26.8
2017-08-29T16:31:43.209Z,26.6
2017-08-29T16:32:45.653Z,26.7
2017-08-29T16:33:48.104Z,26.7
2017-08-29T16:34:50.551Z,26.6
2017-08-29T16:35:52.998Z,26.5
2017-08-29T16:36:55.443Z,26.4
2017-08-29T16:42:44.079Z,25.7
2017-08-29T16:43:46.528Z,25.9
2017-08-29T16:44:48.974Z,26.1
2017-08-29T16:50:59.268Z,25.8
2017-08-29T16:51:01.599Z,26
2017-08-29T16:51:27.043Z,26
2017-08-29T16:55:15.570Z,25.4
2017-08-29T16:55:32.405Z,25.6
2017-08-29T17:01:57.403Z,24.8
2017-08-29T17:12:21.261Z,24.2
2017-08-29T17:13:23.712Z,24.3
2017-08-29T17:14:26.496Z,24.4
2017-08-29T17:15:29.140Z,24.3
2017-08-29T17:16:31.934Z,24.4
2017-08-29T17:17:34.380Z,24.4
2017-08-29T17:18:36.822Z,24.3
2017-08-29T17:19:39.278Z,24.2
2017-08-29T17:20:41.747Z,24.2
2017-08-29T17:21:44.191Z,24
2017-08-29T17:22:46.980Z,24
2017-08-29T17:23:49.426Z,23.9
2017-08-29T17:24:51.873Z,23.8
2017-08-29T17:25:54.331Z,23.6
2017-08-29T17:26:56.774Z,23.6
2017-08-29T17:27:59.225Z,23.6
2017-08-29T17:29:01.669Z,23.7
2017-08-29T17:30:04.159Z,23.6
2017-08-29T17:31:06.600Z,23.6
2017-08-29T17:32:09.052Z,23.6
2017-08-29T17:33:11.493Z,23.6
2017-08-29T17:34:13.949Z,23.7
2017-08-29T17:35:16.391Z,23.5
2017-08-29T17:36:19.173Z,23.4
2017-08-29T17:37:21.630Z,23.4
2017-08-29T17:38:24.071Z,23.3
2017-08-29T17:39:26.511Z,23.4
2017-08-29T17:40:28.957Z,23.2
2017-08-29T17:41:31.398Z,23.1
2017-08-29T17:42:33.838Z,23.1
2017-08-29T17:43:36.281Z,22.9
2017-08-29T17:44:38.728Z,22.8
2017-08-29T17:45:41.187Z,22.7
2017-08-29T17:46:43.630Z,22.7
2017-08-29T17:47:46.077Z,22.7
2017-08-29T17:48:48.531Z,22.7
2017-08-29T17:49:50.986Z,22.7
2017-08-29T17:50:53.417Z,22.6
2017-08-29T17:51:55.863Z,22.6
2017-08-29T17:52:58.305Z,22.5
2017-08-29T17:54:00.750Z,22.4
2017-08-29T17:55:03.203Z,22.4
2017-08-29T17:56:05.984Z,22.5
2017-08-29T17:57:08.432Z,22.5
2017-08-29T17:58:10.872Z,22.5
2017-08-29T17:59:13.317Z,22.4
2017-08-29T18:00:15.774Z,22.3
2017-08-29T18:01:18.203Z,22.3
2017-08-29T18:02:20.996Z,22.2
2017-08-29T18:03:23.447Z,22.2
2017-08-29T18:04:25.898Z,22
2017-08-29T18:05:28.687Z,22
2017-08-29T18:06:31.129Z,22
2017-08-29T18:07:33.570Z,22
2017-08-29T18:08:36.024Z,22
2017-08-29T18:09:38.471Z,22
2017-08-29T18:10:40.906Z,22
2017-08-29T18:11:43.349Z,22
2017-08-29T18:12:46.096Z,21.9
2017-08-29T18:13:48.878Z,21.9
2017-08-29T18:14:51.328Z,21.9
2017-08-29T18:15:54.108Z,21.8
2017-08-29T18:16:56.557Z,21.7
2017-08-29T18:17:58.995Z,21.7
2017-08-29T18:19:01.457Z,21.7
2017-08-29T18:20:03.881Z,21.6
2017-08-29T18:21:06.331Z,21.6
2017-08-29T18:22:08.773Z,21.5
2017-08-29T18:23:11.214Z,21.6
2017-08-29T18:24:13.655Z,21.5
2017-08-29T18:25:16.102Z,21.5
2017-08-29T18:26:18.542Z,21.4
2017-08-29T18:27:21.004Z,21.4
2017-08-29T18:28:23.785Z,21.3
2017-08-29T18:29:26.231Z,21.3
2017-08-29T18:30:28.670Z,21.2
2017-08-29T18:31:31.116Z,21.2
2017-08-29T18:32:33.562Z,21.2
2017-08-29T18:33:36.015Z,21
2017-08-29T18:34:38.448Z,21
2017-08-29T18:35:40.889Z,21
2017-08-29T18:36:43.331Z,20.9
2017-08-29T18:37:45.775Z,20.9
2017-08-29T18:38:48.220Z,20.9
2017-08-29T18:39:50.668Z,20.9
2017-08-29T18:40:53.458Z,20.8
2017-08-29T18:41:56.238Z,20.8
2017-08-29T18:42:58.688Z,20.8
2017-08-29T18:44:01.138Z,20.8
2017-08-29T18:45:03.576Z,20.7
2017-08-29T18:46:06.024Z,20.7
2017-08-29T18:47:08.465Z,20.7
2017-08-29T18:48:10.903Z,20.7
2017-08-29T18:49:13.358Z,20.7
2017-08-29T18:50:15.797Z,20.7
2017-08-29T18:51:18.240Z,20.7
2017-08-29T18:52:20.682Z,20.7
2017-08-29T18:53:23.122Z,20.7
2017-08-29T18:54:25.565Z,20.7
2017-08-29T18:55:28.013Z,20.7
2017-08-29T18:56:30.454Z,20.7
2017-08-29T18:57:32.896Z,20.8
2017-08-29T18:58:35.349Z,20.7
2017-08-29T18:59:37.784Z,20.7